createdAt,value
2022-10-23T00:01:44.985Z,68.78
2022-10-23T00:04:15.552Z,68.95
2022-10-23T00:06:45.798Z,68.68
2022-10-23T00:09:17.617Z,68.77
2022-10-23T00:11:47.929Z,69.02
2022-10-23T00:14:17.542Z,69.17
2022-10-23T00:16:45.873Z,69.04
2022-10-23T00:19:14.387Z,69.15
2022-10-23T00:21:43.096Z,68.86
2022-10-23T00:24:12.905Z,68.76
2022-10-23T00:26:41.843Z,69.01
2022-10-23T00:29:11.511Z,68.96
2022-10-23T00:31:40.585Z,69.03
2022-10-23T00:34:09.379Z,69.08
2022-10-23T00:36:38.518Z,69.18
2022-10-23T00:39:07.185Z,69.35
2022-10-23T00:41:37.038Z,69.11
2022-10-23T00:44:09.169Z,69.21
2022-10-23T00:46:39.685Z,69.51
2022-10-23T00:49:09.123Z,69.39
2022-10-23T00:51:44.951Z,69.29
2022-10-23T00:54:30.682Z,69.50
2022-10-23T00:57:03.197Z,69.30
2022-10-23T00:59:32.455Z,69.49
2022-10-23T01:02:01.564Z,69.58
2022-10-23T01:04:31.096Z,69.52
2022-10-23T01:07:05.082Z,69.40
2022-10-23T01:09:39.251Z,69.55
2022-10-23T01:12:16.721Z,69.29
2022-10-23T01:14:51.955Z,69.44
2022-10-23T01:17:27.047Z,69.68
2022-10-23T01:20:11.340Z,69.60
2022-10-23T01:23:11.122Z,69.77
2022-10-23T01:26:10.128Z,69.64
2022-10-23T01:28:46.150Z,69.77
2022-10-23T01:31:20.410Z,69.64
2022-10-23T01:33:53.515Z,69.34
2022-10-23T01:36:25.358Z,69.42
2022-10-23T01:38:57.898Z,69.48
2022-10-23T01:41:31.389Z,69.59
2022-10-23T01:44:06.364Z,69.73
2022-10-23T01:46:37.702Z,69.84
2022-10-23T01:49:10.099Z,69.73
2022-10-23T01:51:40.294Z,69.88
2022-10-23T01:54:12.059Z,69.71
2022-10-23T01:56:45.388Z,69.73
2022-10-23T01:59:18.611Z,69.70
2022-10-23T02:01:50.734Z,69.80
2022-10-23T02:04:25.393Z,69.67
2022-10-23T02:06:53.819Z,69.48
2022-10-23T02:09:22.213Z,69.61
2022-10-23T02:11:56.776Z,69.68
2022-10-23T02:14:38.523Z,69.58
2022-10-23T02:17:16.212Z,69.84
2022-10-23T02:19:52.084Z,69.64
2022-10-23T02:22:26.670Z,69.65
2022-10-23T02:24:58.872Z,69.66
2022-10-23T02:27:33.498Z,69.75
2022-10-23T02:30:06.812Z,69.76
2022-10-23T02:32:36.742Z,69.78
2022-10-23T02:35:06.035Z,69.97
2022-10-23T02:37:34.829Z,69.97
2022-10-23T02:40:04.134Z,69.93
2022-10-23T02:42:38.253Z,69.75
2022-10-23T02:45:13.335Z,69.82
2022-10-23T02:47:53.087Z,69.76
2022-10-23T02:50:31.080Z,69.98
2022-10-23T02:53:07.858Z,69.92
2022-10-23T02:55:47.328Z,69.81
2022-10-23T02:58:22.242Z,70.01
2022-10-23T03:00:56.224Z,70.00
2022-10-23T03:03:29.592Z,69.76
2022-10-23T03:05:58.467Z,69.82
2022-10-23T03:08:27.179Z,69.73
2022-10-23T03:10:55.547Z,69.61
2022-10-23T03:13:24.596Z,69.57
2022-10-23T03:15:54.354Z,69.42
2022-10-23T03:18:22.795Z,69.42
2022-10-23T03:20:51.173Z,69.34
2022-10-23T03:23:19.446Z,69.28
2022-10-23T03:25:48.157Z,69.38
2022-10-23T03:28:16.468Z,69.58
2022-10-23T03:30:44.891Z,69.51
2022-10-23T03:33:14.842Z,69.45
2022-10-23T03:35:43.424Z,69.65
2022-10-23T03:38:11.783Z,69.51
2022-10-23T03:40:40.181Z,69.51
2022-10-23T03:43:08.515Z,69.47
2022-10-23T03:45:38.675Z,69.46
2022-10-23T03:48:07.552Z,69.57
2022-10-23T03:50:37.912Z,69.71
2022-10-23T03:53:06.328Z,69.65
2022-10-23T03:55:34.797Z,69.66
2022-10-23T03:58:03.345Z,69.51
2022-10-23T04:00:32.231Z,69.47
2022-10-23T04:03:00.630Z,69.38
2022-10-23T04:05:29.346Z,69.39
2022-10-23T04:07:59.130Z,69.13
2022-10-23T04:10:27.732Z,69.36
2022-10-23T04:12:56.570Z,69.51
2022-10-23T04:15:25.020Z,69.56
2022-10-23T04:17:53.669Z,69.46
2022-10-23T04:20:22.227Z,69.56
2022-10-23T04:22:50.686Z,69.56
2022-10-23T04:25:20.602Z,69.67
2022-10-23T04:27:49.675Z,69.73
2022-10-23T04:30:18.123Z,69.92
2022-10-23T04:32:46.494Z,70.04
2022-10-23T04:35:14.905Z,69.79
2022-10-23T04:37:43.728Z,70.41
2022-10-23T04:40:12.508Z,70.60
2022-10-23T04:42:42.506Z,70.94
2022-10-23T04:45:11.787Z,71.07
2022-10-23T04:47:40.331Z,70.85
2022-10-23T04:50:09.407Z,70.96
2022-10-23T04:52:38.048Z,70.97
2022-10-23T04:55:10.021Z,70.89
2022-10-23T04:57:38.294Z,70.85
2022-10-23T05:00:11.379Z,70.92
2022-10-23T05:02:39.979Z,70.77
2022-10-23T05:05:10.622Z,70.84
2022-10-23T05:07:40.340Z,70.86
2022-10-23T05:10:09.591Z,70.72
2022-10-23T05:12:37.966Z,70.50
2022-10-23T05:15:09.098Z,70.33
2022-10-23T05:17:41.343Z,70.11
2022-10-23T05:20:15.274Z,70.06
2022-10-23T05:22:43.960Z,70.14
2022-10-23T05:25:14.066Z,69.97
2022-10-23T05:27:42.912Z,69.89
2022-10-23T05:30:14.333Z,69.63
2022-10-23T05:32:43.130Z,69.72
2022-10-23T05:35:17.361Z,69.23
2022-10-23T05:37:47.950Z,69.14
2022-10-23T05:40:16.367Z,69.18
2022-10-23T05:42:45.020Z,69.00
2022-10-23T05:45:15.023Z,68.82
2022-10-23T05:47:45.318Z,69.02
2022-10-23T05:50:14.111Z,68.34
2022-10-23T05:52:42.834Z,68.22
2022-10-23T05:55:11.809Z,68.38
2022-10-23T05:57:40.247Z,68.59
2022-10-23T06:00:10.055Z,68.35
2022-10-23T06:02:40.015Z,68.27
2022-10-23T06:05:09.072Z,68.23
2022-10-23T06:07:37.706Z,68.30
2022-10-23T06:10:07.432Z,68.28
2022-10-23T06:12:35.930Z,68.29
2022-10-23T06:15:04.835Z,68.50
2022-10-23T06:17:33.225Z,68.70
2022-10-23T06:20:02.988Z,68.39
2022-10-23T06:22:31.536Z,68.60
2022-10-23T06:24:59.935Z,68.70
2022-10-23T06:27:28.292Z,68.73
2022-10-23T06:29:56.695Z,68.57
2022-10-23T06:32:25.391Z,68.47
2022-10-23T06:34:53.715Z,68.32
2022-10-23T06:37:23.582Z,68.04
2022-10-23T06:39:52.203Z,68.20
2022-10-23T06:42:20.992Z,68.00
2022-10-23T06:44:49.298Z,67.96
2022-10-23T06:49:51.149Z,68.17
2022-10-23T06:52:46.646Z,68.25
2022-10-23T06:55:10.823Z,68.02
2022-10-23T06:57:39.249Z,67.82
2022-10-23T07:00:09.089Z,67.78
2022-10-23T07:02:37.793Z,67.64
2022-10-23T07:05:08.772Z,67.75
2022-10-23T07:07:40.934Z,67.75
2022-10-23T07:10:11.411Z,67.22
2022-10-23T07:12:40.008Z,67.15
2022-10-23T07:15:09.899Z,66.57
2022-10-23T07:17:38.252Z,66.24
2022-10-23T07:20:07.857Z,66.36
2022-10-23T07:22:38.631Z,66.36
2022-10-23T07:25:08.026Z,66.30
2022-10-23T07:27:40.501Z,65.78
2022-10-23T07:30:10.769Z,65.75
2022-10-23T07:32:39.193Z,65.93
2022-10-23T07:35:09.283Z,65.72
2022-10-23T07:37:37.731Z,65.65
2022-10-23T07:40:07.511Z,65.51
2022-10-23T07:42:36.238Z,65.47
2022-10-23T07:45:09.302Z,65.78
2022-10-23T07:47:37.835Z,65.80
2022-10-23T07:50:06.847Z,65.46
2022-10-23T07:52:36.599Z,65.58
2022-10-23T07:55:05.609Z,65.56
2022-10-23T07:57:34.084Z,65.53
2022-10-23T08:00:02.468Z,65.20
2022-10-23T08:02:32.398Z,65.01
2022-10-23T08:05:01.468Z,64.92
2022-10-23T08:07:29.868Z,64.80
2022-10-23T08:09:58.332Z,64.45
2022-10-23T08:12:26.875Z,64.44
2022-10-23T08:14:56.376Z,64.33
2022-10-23T08:17:26.400Z,64.14
2022-10-23T08:19:58.369Z,64.14
2022-10-23T08:22:26.793Z,63.84
2022-10-23T08:24:55.494Z,63.74
2022-10-23T08:27:23.810Z,63.46
2022-10-23T08:29:52.957Z,63.50
2022-10-23T08:32:22.286Z,63.21
2022-10-23T08:34:50.655Z,63.01
2022-10-23T08:37:20.444Z,62.98
2022-10-23T08:39:51.296Z,62.92
2022-10-23T08:42:24.583Z,62.95
2022-10-23T08:45:01.771Z,62.72
2022-10-23T08:47:37.704Z,62.60
2022-10-23T08:50:14.470Z,62.30
2022-10-23T08:52:50.934Z,62.32
2022-10-23T08:55:25.055Z,62.29
2022-10-23T08:58:01.970Z,62.02
2022-10-23T09:00:30.667Z,62.11
2022-10-23T09:03:02.790Z,61.98
2022-10-23T09:05:35.770Z,61.80
2022-10-23T09:08:25.552Z,61.29
2022-10-23T09:11:03.137Z,61.20
2022-10-23T09:14:15.507Z,60.49
2022-10-23T09:16:55.293Z,60.88
2022-10-23T09:19:27.607Z,60.80
2022-10-23T09:21:58.098Z,60.64
2022-10-23T09:24:31.917Z,60.41
2022-10-23T09:27:01.997Z,60.18
2022-10-23T09:29:33.446Z,60.15
2022-10-23T09:32:03.707Z,59.86
2022-10-23T09:34:34.624Z,59.73
2022-10-23T09:37:05.518Z,59.57
2022-10-23T09:39:37.904Z,59.36
2022-10-23T09:42:23.275Z,59.21
2022-10-23T09:44:53.919Z,59.18
2022-10-23T09:47:24.475Z,59.06
2022-10-23T09:49:55.496Z,59.32
2022-10-23T09:52:27.267Z,59.28
2022-10-23T09:54:59.953Z,59.07
2022-10-23T09:57:33.576Z,58.81
2022-10-23T10:00:03.489Z,58.89
2022-10-23T10:02:34.840Z,59.11
2022-10-23T10:05:23.295Z,58.81
2022-10-23T10:07:57.637Z,58.84
2022-10-23T10:10:34.995Z,58.65
2022-10-23T10:13:14.974Z,58.48
2022-10-23T10:15:51.676Z,58.24
2022-10-23T10:18:25.175Z,57.92
2022-10-23T10:21:07.619Z,57.87
2022-10-23T10:23:44.393Z,58.02
2022-10-23T10:29:16.600Z,57.45
2022-10-23T10:31:58.204Z,57.44
2022-10-23T10:34:37.756Z,57.44
2022-10-23T10:37:22.558Z,57.46
2022-10-23T10:39:59.103Z,57.32
2022-10-23T10:42:45.759Z,56.87
2022-10-23T10:45:22.053Z,56.91
2022-10-23T10:48:18.373Z,56.36
2022-10-23T10:50:51.466Z,56.47
2022-10-23T10:53:27.695Z,56.63
2022-10-23T10:55:58.806Z,56.79
2022-10-23T10:58:37.692Z,56.36
2022-10-23T11:01:16.237Z,56.26
2022-10-23T11:03:52.101Z,56.08
2022-10-23T11:06:24.788Z,55.74
2022-10-23T11:08:57.170Z,55.62
2022-10-23T11:11:30.844Z,55.61
2022-10-23T11:14:01.014Z,55.56
2022-10-23T11:16:33.503Z,55.53
2022-10-23T11:19:11.406Z,55.29
2022-10-23T11:21:46.659Z,55.32
2022-10-23T11:24:50.132Z,55.29
2022-10-23T11:27:50.314Z,55.15
2022-10-23T11:30:26.995Z,54.55
2022-10-23T11:33:23.626Z,53.96
2022-10-23T11:36:02.589Z,54.38
2022-10-23T11:38:34.634Z,54.01
2022-10-23T11:41:06.296Z,53.44
2022-10-23T11:43:37.111Z,53.37
2022-10-23T11:46:29.983Z,53.06
2022-10-23T11:48:59.313Z,53.18
2022-10-23T11:51:29.467Z,53.00
2022-10-23T11:54:24.980Z,52.96
2022-10-23T11:56:57.459Z,53.28
2022-10-23T11:59:32.049Z,53.30
2022-10-23T12:02:05.290Z,53.24
2022-10-23T12:04:42.880Z,53.17
2022-10-23T12:07:23.972Z,53.12
2022-10-23T12:09:58.464Z,53.13
2022-10-23T12:12:34.161Z,53.19
2022-10-23T12:15:24.938Z,53.19
2022-10-23T12:17:56.327Z,53.30
2022-10-23T12:20:29.707Z,53.23
2022-10-23T12:23:14.944Z,53.09
2022-10-23T12:25:56.346Z,52.83
2022-10-23T12:28:39.764Z,52.64
2022-10-23T12:31:28.621Z,52.86
2022-10-23T12:34:08.882Z,52.85
2022-10-23T12:36:52.062Z,52.97
2022-10-23T12:39:28.287Z,52.99
2022-10-23T12:41:57.991Z,52.90
2022-10-23T12:44:27.143Z,52.84
2022-10-23T12:46:57.954Z,52.68
2022-10-23T12:49:31.785Z,52.43
2022-10-23T12:52:01.861Z,52.50
2022-10-23T12:54:33.397Z,52.28
2022-10-23T12:57:02.206Z,52.45
2022-10-23T12:59:38.761Z,52.40
2022-10-23T13:02:23.526Z,52.49
2022-10-23T13:04:55.518Z,52.29
2022-10-23T13:07:28.452Z,52.30
2022-10-23T13:09:57.455Z,52.75
2022-10-23T13:12:28.629Z,52.88
2022-10-23T13:15:00.417Z,52.95
2022-10-23T13:17:37.951Z,52.60
2022-10-23T13:20:23.754Z,52.84
2022-10-23T13:23:00.495Z,53.17
2022-10-23T13:25:32.212Z,53.16
2022-10-23T13:28:14.995Z,53.29
2022-10-23T13:30:46.452Z,53.09
2022-10-23T13:33:24.518Z,52.43
2022-10-23T13:36:05.095Z,52.31
2022-10-23T13:38:35.287Z,52.53
2022-10-23T13:41:06.105Z,52.55
2022-10-23T13:43:36.122Z,52.72
2022-10-23T13:46:04.800Z,52.94
2022-10-23T13:48:33.223Z,52.76
2022-10-23T13:51:13.782Z,52.84
2022-10-23T13:53:42.135Z,53.04
2022-10-23T13:56:14.198Z,52.93
2022-10-23T13:58:42.711Z,52.99
2022-10-23T14:01:21.830Z,52.85
2022-10-23T14:03:50.811Z,52.89
2022-10-23T14:06:20.918Z,52.83
2022-10-23T14:08:49.455Z,52.95
2022-10-23T14:11:19.441Z,52.71
2022-10-23T14:13:49.451Z,52.93
2022-10-23T14:16:21.040Z,52.73
2022-10-23T14:18:49.796Z,52.57
2022-10-23T14:21:23.671Z,52.53
2022-10-23T14:23:54.193Z,52.32
2022-10-23T14:26:25.258Z,52.14
2022-10-23T14:28:55.642Z,51.92
2022-10-23T14:31:24.827Z,51.97
2022-10-23T14:33:56.088Z,52.02
2022-10-23T14:36:31.078Z,51.83
2022-10-23T14:39:07.368Z,51.67
2022-10-23T14:41:35.636Z,51.77
2022-10-23T14:44:04.122Z,51.61
2022-10-23T14:46:46.466Z,51.68
2022-10-23T14:49:16.447Z,51.63
2022-10-23T14:51:47.327Z,51.25
2022-10-23T14:54:16.409Z,51.00
2022-10-23T14:56:44.795Z,50.81
2022-10-23T14:59:15.656Z,50.66
2022-10-23T15:01:48.559Z,50.62
2022-10-23T15:04:19.900Z,50.53
2022-10-23T15:06:52.051Z,50.34
2022-10-23T15:09:20.713Z,50.20
2022-10-23T15:11:49.319Z,50.23
2022-10-23T15:14:17.798Z,50.05
2022-10-23T15:16:46.683Z,50.03
2022-10-23T15:19:18.663Z,49.94
2022-10-23T15:21:48.183Z,49.98
2022-10-23T15:24:18.862Z,49.36
2022-10-23T15:26:47.363Z,49.38
2022-10-23T15:29:16.384Z,49.21
2022-10-23T15:31:54.560Z,49.29
2022-10-23T15:34:25.788Z,49.20
2022-10-23T15:36:55.537Z,48.96
2022-10-23T15:39:27.203Z,48.92
2022-10-23T15:41:57.088Z,48.84
2022-10-23T15:44:28.652Z,48.59
2022-10-23T15:46:58.230Z,48.82
2022-10-23T15:49:27.454Z,48.59
2022-10-23T15:51:56.110Z,48.55
2022-10-23T15:54:29.264Z,48.08
2022-10-23T15:57:01.845Z,48.46
2022-10-23T15:59:31.802Z,48.43
2022-10-23T16:02:01.345Z,48.55
2022-10-23T16:04:33.789Z,48.63
2022-10-23T16:07:02.078Z,48.53
2022-10-23T16:09:34.318Z,48.52
2022-10-23T16:12:04.912Z,48.70
2022-10-23T16:14:36.057Z,48.44
2022-10-23T16:17:08.556Z,48.68
2022-10-23T16:19:39.567Z,48.67
2022-10-23T16:22:09.750Z,48.96
2022-10-23T16:24:40.034Z,49.08
2022-10-23T16:27:08.967Z,48.99
2022-10-23T16:29:37.708Z,49.21
2022-10-23T16:32:06.626Z,49.41
2022-10-23T16:34:35.021Z,49.21
2022-10-23T16:37:03.707Z,49.35
2022-10-23T16:39:32.031Z,49.53
2022-10-23T16:42:01.826Z,49.66
2022-10-23T16:44:30.409Z,49.87
2022-10-23T16:46:59.119Z,49.93
2022-10-23T16:49:29.967Z,50.02
2022-10-23T16:52:00.664Z,49.92
2022-10-23T16:54:29.126Z,50.10
2022-10-23T16:56:58.844Z,50.22
2022-10-23T16:59:29.564Z,50.25
2022-10-23T17:01:58.516Z,50.20
2022-10-23T17:04:27.420Z,50.39
2022-10-23T17:06:55.779Z,50.43
2022-10-23T17:09:26.893Z,50.66
2022-10-23T17:11:55.681Z,50.82
2022-10-23T17:14:29.407Z,50.77
2022-10-23T17:17:01.455Z,51.14
2022-10-23T17:19:47.025Z,51.28
2022-10-23T17:22:16.127Z,51.06
2022-10-23T17:24:47.618Z,51.00
2022-10-23T17:27:19.343Z,50.86
2022-10-23T17:29:48.420Z,51.10
2022-10-23T17:32:18.812Z,51.16
2022-10-23T17:34:47.843Z,51.24
2022-10-23T17:37:17.375Z,51.44
2022-10-23T17:39:46.103Z,51.22
2022-10-23T17:42:14.646Z,51.62
2022-10-23T17:44:43.084Z,51.61
2022-10-23T17:47:11.499Z,51.68
2022-10-23T17:49:42.915Z,51.91
2022-10-23T17:52:15.487Z,52.01
2022-10-23T17:54:44.173Z,52.24
2022-10-23T17:57:13.002Z,52.10
2022-10-23T17:59:41.541Z,52.10
2022-10-23T18:02:14.340Z,52.33
2022-10-23T18:04:44.463Z,52.37
2022-10-23T18:07:13.266Z,52.51
2022-10-23T18:09:41.943Z,52.50
2022-10-23T18:12:10.404Z,52.74
2022-10-23T18:14:39.312Z,52.67
2022-10-23T18:17:08.114Z,52.73
2022-10-23T18:19:36.776Z,52.83
2022-10-23T18:22:06.743Z,52.73
2022-10-23T18:24:36.260Z,52.73
2022-10-23T18:27:04.813Z,52.86
2022-10-23T18:29:33.142Z,52.71
2022-10-23T18:32:01.565Z,52.90
2022-10-23T18:34:29.892Z,52.76
2022-10-23T18:36:58.706Z,52.79
2022-10-23T18:39:29.059Z,52.64
2022-10-23T18:41:59.523Z,52.74
2022-10-23T18:44:30.371Z,52.84
2022-10-23T18:47:01.057Z,52.78
2022-10-23T18:49:31.128Z,52.58
2022-10-23T18:52:01.452Z,52.60
2022-10-23T18:54:32.974Z,52.49
2022-10-23T18:57:03.419Z,52.37
2022-10-23T18:59:33.052Z,52.33
2022-10-23T19:02:03.079Z,52.33
2022-10-23T19:04:35.627Z,52.29
2022-10-23T19:07:06.186Z,52.36
2022-10-23T19:09:37.481Z,52.32
2022-10-23T19:12:07.754Z,52.25
2022-10-23T19:14:37.332Z,52.44
2022-10-23T19:17:10.829Z,52.65
2022-10-23T19:19:46.154Z,52.92
2022-10-23T19:22:18.805Z,52.94
2022-10-23T19:24:53.349Z,52.96
2022-10-23T19:27:23.345Z,53.13
2022-10-23T19:29:54.954Z,53.21
2022-10-23T19:32:24.600Z,53.44
2022-10-23T19:34:54.535Z,53.60
2022-10-23T19:37:24.858Z,53.80
2022-10-23T19:39:56.406Z,54.15
2022-10-23T19:42:26.203Z,54.62
2022-10-23T19:44:56.225Z,54.83
2022-10-23T19:47:26.192Z,55.26
2022-10-23T19:49:55.967Z,55.69
2022-10-23T19:52:25.763Z,56.17
2022-10-23T19:54:57.011Z,56.62
2022-10-23T19:57:26.817Z,56.99
2022-10-23T19:59:56.632Z,57.29
2022-10-23T20:02:26.277Z,58.05
2022-10-23T20:04:56.334Z,58.90
2022-10-23T20:07:26.170Z,59.19
2022-10-23T20:09:57.466Z,59.80
2022-10-23T20:12:27.157Z,60.37
2022-10-23T20:14:57.067Z,60.80
2022-10-23T20:17:27.029Z,61.18
2022-10-23T20:19:57.356Z,61.42
2022-10-23T20:22:25.762Z,61.61
2022-10-23T20:24:55.655Z,62.08
2022-10-23T20:27:24.322Z,62.54
2022-10-23T20:29:52.864Z,62.70
2022-10-23T20:32:21.755Z,62.86
2022-10-23T20:34:50.383Z,62.95
2022-10-23T20:37:18.736Z,63.20
2022-10-23T20:39:49.885Z,63.40
2022-10-23T20:42:19.791Z,63.57
2022-10-23T20:44:48.367Z,63.67
2022-10-23T20:47:16.770Z,63.93
2022-10-23T20:49:45.221Z,63.89
2022-10-23T20:52:13.664Z,64.07
2022-10-23T20:54:42.994Z,64.07
2022-10-23T20:57:11.486Z,64.28
2022-10-23T20:59:41.295Z,64.51
2022-10-23T21:02:11.498Z,64.80
2022-10-23T21:04:40.139Z,64.82
2022-10-23T21:07:10.424Z,65.01
2022-10-23T21:09:40.119Z,65.18
2022-10-23T21:12:09.243Z,65.35
2022-10-23T21:14:37.955Z,65.64
2022-10-23T21:17:09.252Z,65.71
2022-10-23T21:19:37.813Z,65.73
2022-10-23T21:22:06.201Z,65.78
2022-10-23T21:24:35.615Z,65.73
2022-10-23T21:27:04.014Z,65.88
2022-10-23T21:29:32.927Z,65.85
2022-10-23T21:32:02.576Z,65.88
2022-10-23T21:34:32.603Z,65.98
2022-10-23T21:37:17.691Z,65.91
2022-10-23T21:39:46.317Z,66.04
2022-10-23T21:42:15.703Z,66.25
2022-10-23T21:44:44.232Z,66.06
2022-10-23T21:47:12.549Z,66.34
2022-10-23T21:49:42.627Z,66.72
2022-10-23T21:52:11.768Z,66.71
2022-10-23T21:54:41.174Z,66.87
2022-10-23T21:57:14.828Z,67.15
2022-10-23T21:59:42.865Z,67.73
2022-10-23T22:02:11.567Z,67.18
2022-10-23T22:04:42.431Z,67.24
2022-10-23T22:07:15.091Z,67.41
2022-10-23T22:09:43.959Z,67.48
2022-10-23T22:12:13.186Z,67.34
2022-10-23T22:14:42.749Z,67.28
2022-10-23T22:17:11.215Z,67.54
2022-10-23T22:19:39.547Z,67.57
2022-10-23T22:22:09.612Z,67.61
2022-10-23T22:24:38.302Z,67.80
2022-10-23T22:27:06.691Z,67.83
2022-10-23T22:29:35.160Z,68.17
2022-10-23T22:32:03.406Z,68.19
2022-10-23T22:34:52.786Z,68.25
2022-10-23T22:37:22.755Z,68.39
2022-10-23T22:39:53.476Z,68.48
2022-10-23T22:42:22.161Z,68.45
2022-10-23T22:44:50.567Z,68.47
2022-10-23T22:47:18.939Z,68.29
2022-10-23T22:49:47.320Z,68.48
2022-10-23T22:52:16.493Z,68.13
2022-10-23T22:54:46.555Z,68.49
2022-10-23T22:57:15.019Z,68.58
2022-10-23T22:59:43.840Z,68.82
2022-10-23T23:02:12.182Z,69.01
2022-10-23T23:04:40.655Z,69.07
2022-10-23T23:07:10.308Z,69.20
2022-10-23T23:09:40.189Z,69.29
2022-10-23T23:12:12.632Z,69.22
2022-10-23T23:14:41.559Z,69.25
2022-10-23T23:17:10.888Z,69.26
2022-10-23T23:19:39.579Z,69.20
2022-10-23T23:22:07.956Z,69.38
2022-10-23T23:24:36.397Z,69.52
2022-10-23T23:27:04.963Z,69.49
2022-10-23T23:29:34.811Z,69.67
2022-10-23T23:32:03.211Z,69.49
2022-10-23T23:34:31.661Z,69.62
2022-10-23T23:36:59.970Z,69.48
2022-10-23T23:39:28.797Z,69.42
2022-10-23T23:41:57.173Z,69.77
2022-10-23T23:44:25.561Z,69.77
2022-10-23T23:46:55.973Z,69.62
2022-10-23T23:49:24.472Z,69.81
2022-10-23T23:51:53.185Z,69.73
2022-10-23T23:54:21.502Z,70.00
2022-10-23T23:56:49.916Z,70.12
2022-10-23T23:59:18.682Z,70.04
